sensor_id;sensor_type;location;lat;lon;timestamp;P1;durP1;ratioP1;P2;durP2;ratioP2
60318;SDS011;46163;52.306;5.634;2023-07-31T00:00:32;1.70;;;1.60;;
60318;SDS011;46163;52.306;5.634;2023-07-31T00:03:00;1.92;;;1.52;;
60318;SDS011;46163;52.306;5.634;2023-07-31T00:05:25;2.53;;;1.80;;
60318;SDS011;46163;52.306;5.634;2023-07-31T00:07:51;3.90;;;1.90;;
60318;SDS011;46163;52.306;5.634;2023-07-31T00:10:16;2.22;;;2.00;;
60318;SDS011;46163;52.306;5.634;2023-07-31T00:12:43;1.20;;;1.20;;
60318;SDS011;46163;52.306;5.634;2023-07-31T00:15:12;1.38;;;1.38;;
60318;SDS011;46163;52.306;5.634;2023-07-31T00:17:39;1.83;;;1.63;;
60318;SDS011;46163;52.306;5.634;2023-07-31T00:20:04;1.40;;;1.40;;
60318;SDS011;46163;52.306;5.634;2023-07-31T00:22:30;1.67;;;1.58;;
60318;SDS011;46163;52.306;5.634;2023-07-31T00:24:56;1.60;;;1.50;;
60318;SDS011;46163;52.306;5.634;2023-07-31T00:27:22;1.65;;;1.45;;
60318;SDS011;46163;52.306;5.634;2023-07-31T00:29:49;1.60;;;1.50;;
60318;SDS011;46163;52.306;5.634;2023-07-31T00:32:15;1.65;;;1.55;;
60318;SDS011;46163;52.306;5.634;2023-07-31T00:34:40;2.08;;;1.60;;
60318;SDS011;46163;52.306;5.634;2023-07-31T00:37:06;2.35;;;1.80;;
60318;SDS011;46163;52.306;5.634;2023-07-31T00:39:33;1.75;;;1.65;;
60318;SDS011;46163;52.306;5.634;2023-07-31T00:41:59;1.70;;;1.60;;
60318;SDS011;46163;52.306;5.634;2023-07-31T00:44:24;1.65;;;1.55;;
60318;SDS011;46163;52.306;5.634;2023-07-31T00:46:50;2.35;;;1.88;;
60318;SDS011;46163;52.306;5.634;2023-07-31T00:49:16;2.08;;;1.70;;
60318;SDS011;46163;52.306;5.634;2023-07-31T00:51:41;2.70;;;2.03;;
60318;SDS011;46163;52.306;5.634;2023-07-31T00:54:07;3.03;;;1.75;;
60318;SDS011;46163;52.306;5.634;2023-07-31T00:56:32;2.22;;;1.92;;
60318;SDS011;46163;52.306;5.634;2023-07-31T00:58:58;2.35;;;1.88;;
60318;SDS011;46163;52.306;5.634;2023-07-31T01:01:24;3.17;;;2.20;;
60318;SDS011;46163;52.306;5.634;2023-07-31T01:03:49;1.77;;;1.65;;
60318;SDS011;46163;52.306;5.634;2023-07-31T01:09:33;2.40;;;1.70;;
60318;SDS011;46163;52.306;5.634;2023-07-31T01:14:31;10.98;;;2.00;;
60318;SDS011;46163;52.306;5.634;2023-07-31T01:16:57;10.57;;;1.98;;
60318;SDS011;46163;52.306;5.634;2023-07-31T01:19:23;5.07;;;1.48;;
60318;SDS011;46163;52.306;5.634;2023-07-31T01:22:12;2.22;;;1.50;;
60318;SDS011;46163;52.306;5.634;2023-07-31T01:24:55;3.97;;;1.60;;
60318;SDS011;46163;52.306;5.634;2023-07-31T01:27:39;1.52;;;1.42;;
60318;SDS011;46163;52.306;5.634;2023-07-31T01:30:13;4.35;;;1.80;;
60318;SDS011;46163;52.306;5.634;2023-07-31T01:32:42;5.75;;;2.10;;
60318;SDS011;46163;52.306;5.634;2023-07-31T01:35:12;6.53;;;2.00;;
60318;SDS011;46163;52.306;5.634;2023-07-31T01:37:38;2.00;;;1.85;;
60318;SDS011;46163;52.306;5.634;2023-07-31T01:40:03;2.15;;;1.95;;
60318;SDS011;46163;52.306;5.634;2023-07-31T01:42:29;3.60;;;2.20;;
60318;SDS011;46163;52.306;5.634;2023-07-31T01:44:55;4.93;;;2.35;;
60318;SDS011;46163;52.306;5.634;2023-07-31T01:47:20;4.82;;;2.75;;
60318;SDS011;46163;52.306;5.634;2023-07-31T01:49:46;4.72;;;2.63;;
60318;SDS011;46163;52.306;5.634;2023-07-31T01:52:11;8.02;;;2.30;;
60318;SDS011;46163;52.306;5.634;2023-07-31T01:54:39;4.20;;;2.58;;
60318;SDS011;46163;52.306;5.634;2023-07-31T01:57:04;4.03;;;2.42;;
60318;SDS011;46163;52.306;5.634;2023-07-31T01:59:30;8.50;;;2.90;;
60318;SDS011;46163;52.306;5.634;2023-07-31T02:01:55;6.20;;;2.92;;
60318;SDS011;46163;52.306;5.634;2023-07-31T02:04:23;7.30;;;2.90;;
60318;SDS011;46163;52.306;5.634;2023-07-31T02:06:52;4.70;;;2.90;;
60318;SDS011;46163;52.306;5.634;2023-07-31T02:09:18;5.25;;;2.80;;
60318;SDS011;46163;52.306;5.634;2023-07-31T02:11:43;5.55;;;3.00;;
60318;SDS011;46163;52.306;5.634;2023-07-31T02:14:08;5.95;;;3.03;;
60318;SDS011;46163;52.306;5.634;2023-07-31T02:16:34;4.03;;;2.47;;
60318;SDS011;46163;52.306;5.634;2023-07-31T02:18:59;5.95;;;2.80;;
60318;SDS011;46163;52.306;5.634;2023-07-31T02:21:25;6.30;;;2.97;;
60318;SDS011;46163;52.306;5.634;2023-07-31T02:23:50;7.78;;;3.13;;
60318;SDS011;46163;52.306;5.634;2023-07-31T02:26:15;3.22;;;2.25;;
60318;SDS011;46163;52.306;5.634;2023-07-31T02:28:43;3.70;;;2.25;;
60318;SDS011;46163;52.306;5.634;2023-07-31T02:31:09;6.53;;;2.75;;
60318;SDS011;46163;52.306;5.634;2023-07-31T02:33:34;5.90;;;2.90;;
60318;SDS011;46163;52.306;5.634;2023-07-31T02:35:59;7.72;;;3.22;;
60318;SDS011;46163;52.306;5.634;2023-07-31T02:38:25;7.68;;;3.22;;
60318;SDS011;46163;52.306;5.634;2023-07-31T02:40:50;6.18;;;2.95;;
60318;SDS011;46163;52.306;5.634;2023-07-31T02:43:16;4.30;;;2.78;;
60318;SDS011;46163;52.306;5.634;2023-07-31T02:45:41;5.93;;;4.03;;
60318;SDS011;46163;52.306;5.634;2023-07-31T02:48:06;10.15;;;3.80;;
60318;SDS011;46163;52.306;5.634;2023-07-31T02:50:34;22.20;;;4.35;;
60318;SDS011;46163;52.306;5.634;2023-07-31T02:53:00;10.95;;;4.50;;
60318;SDS011;46163;52.306;5.634;2023-07-31T02:55:25;7.90;;;3.78;;
60318;SDS011;46163;52.306;5.634;2023-07-31T02:57:51;12.48;;;4.68;;
60318;SDS011;46163;52.306;5.634;2023-07-31T03:00:17;11.23;;;4.90;;
60318;SDS011;46163;52.306;5.634;2023-07-31T03:02:43;14.02;;;5.05;;
60318;SDS011;46163;52.306;5.634;2023-07-31T03:05:08;14.23;;;5.00;;
60318;SDS011;46163;52.306;5.634;2023-07-31T03:07:33;11.35;;;5.05;;
60318;SDS011;46163;52.306;5.634;2023-07-31T03:09:59;15.18;;;5.25;;
60318;SDS011;46163;52.306;5.634;2023-07-31T03:12:24;14.60;;;4.32;;
60318;SDS011;46163;52.306;5.634;2023-07-31T03:14:50;11.02;;;5.10;;
60318;SDS011;46163;52.306;5.634;2023-07-31T03:17:15;11.93;;;4.30;;
60318;SDS011;46163;52.306;5.634;2023-07-31T03:19:40;12.88;;;5.05;;
60318;SDS011;46163;52.306;5.634;2023-07-31T03:22:06;15.63;;;5.57;;
60318;SDS011;46163;52.306;5.634;2023-07-31T03:24:31;9.50;;;4.80;;
60318;SDS011;46163;52.306;5.634;2023-07-31T03:26:57;12.02;;;4.75;;
60318;SDS011;46163;52.306;5.634;2023-07-31T03:29:22;11.10;;;4.65;;
60318;SDS011;46163;52.306;5.634;2023-07-31T03:31:48;9.18;;;4.63;;
60318;SDS011;46163;52.306;5.634;2023-07-31T03:34:13;15.60;;;5.25;;
60318;SDS011;46163;52.306;5.634;2023-07-31T03:36:39;12.38;;;4.60;;
60318;SDS011;46163;52.306;5.634;2023-07-31T03:39:04;11.25;;;4.80;;
60318;SDS011;46163;52.306;5.634;2023-07-31T03:41:29;12.35;;;4.45;;
60318;SDS011;46163;52.306;5.634;2023-07-31T03:43:55;17.08;;;5.20;;
60318;SDS011;46163;52.306;5.634;2023-07-31T03:46:23;13.68;;;4.18;;
60318;SDS011;46163;52.306;5.634;2023-07-31T03:51:42;10.27;;;4.80;;
60318;SDS011;46163;52.306;5.634;2023-07-31T03:54:17;19.08;;;5.35;;
60318;SDS011;46163;52.306;5.634;2023-07-31T03:56:53;11.88;;;4.90;;
60318;SDS011;46163;52.306;5.634;2023-07-31T04:00:00;12.10;;;4.72;;
60318;SDS011;46163;52.306;5.634;2023-07-31T04:02:52;14.73;;;5.50;;
60318;SDS011;46163;52.306;5.634;2023-07-31T05:10:54;6.93;;;4.40;;
60318;SDS011;46163;52.306;5.634;2023-07-31T05:17:15;10.48;;;4.75;;
60318;SDS011;46163;52.306;5.634;2023-07-31T05:19:57;11.60;;;4.82;;
60318;SDS011;46163;52.306;5.634;2023-07-31T05:22:46;9.73;;;4.65;;
60318;SDS011;46163;52.306;5.634;2023-07-31T05:25:16;14.52;;;5.35;;
60318;SDS011;46163;52.306;5.634;2023-07-31T05:27:45;7.13;;;4.13;;
60318;SDS011;46163;52.306;5.634;2023-07-31T05:33:55;9.55;;;4.30;;
60318;SDS011;46163;52.306;5.634;2023-07-31T05:36:37;9.75;;;4.07;;
60318;SDS011;46163;52.306;5.634;2023-07-31T05:43:20;7.50;;;3.78;;
60318;SDS011;46163;52.306;5.634;2023-07-31T05:53:03;6.70;;;3.78;;
60318;SDS011;46163;52.306;5.634;2023-07-31T06:02:20;7.00;;;3.90;;
60318;SDS011;46163;52.306;5.634;2023-07-31T06:07:39;7.32;;;3.92;;
60318;SDS011;46163;52.306;5.634;2023-07-31T06:16:57;3.97;;;2.85;;
60318;SDS011;46163;52.306;5.634;2023-07-31T06:26:54;5.63;;;3.03;;
60318;SDS011;46163;52.306;5.634;2023-07-31T06:29:34;3.22;;;2.70;;
60318;SDS011;46163;52.306;5.634;2023-07-31T06:38:36;5.40;;;3.08;;
60318;SDS011;46163;52.306;5.634;2023-07-31T06:44:46;4.60;;;2.90;;
60318;SDS011;46163;52.306;5.634;2023-07-31T06:53:54;3.25;;;2.90;;
60318;SDS011;46163;52.306;5.634;2023-07-31T07:03:22;2.97;;;2.60;;
60318;SDS011;46163;52.306;5.634;2023-07-31T07:12:54;3.25;;;2.80;;
60318;SDS011;46163;52.306;5.634;2023-07-31T07:33:49;5.57;;;2.10;;
60318;SDS011;46163;52.306;5.634;2023-07-31T07:37:13;3.35;;;2.22;;
60318;SDS011;46163;52.306;5.634;2023-07-31T07:43:25;2.20;;;2.03;;
60318;SDS011;46163;52.306;5.634;2023-07-31T07:46:44;4.57;;;2.28;;
60318;SDS011;46163;52.306;5.634;2023-07-31T07:53:15;2.58;;;2.35;;
60318;SDS011;46163;52.306;5.634;2023-07-31T07:59:00;3.08;;;2.15;;
60318;SDS011;46163;52.306;5.634;2023-07-31T08:01:28;2.30;;;2.08;;
60318;SDS011;46163;52.306;5.634;2023-07-31T08:10:55;2.60;;;2.33;;
60318;SDS011;46163;52.306;5.634;2023-07-31T08:17:13;2.53;;;2.10;;
60318;SDS011;46163;52.306;5.634;2023-07-31T08:29:00;1.85;;;1.73;;
60318;SDS011;46163;52.306;5.634;2023-07-31T08:41:16;1.90;;;1.80;;
60318;SDS011;46163;52.306;5.634;2023-07-31T08:43:48;1.90;;;1.80;;
60318;SDS011;46163;52.306;5.634;2023-07-31T08:47:16;1.63;;;1.52;;
60318;SDS011;46163;52.306;5.634;2023-07-31T08:53:04;2.55;;;1.70;;
60318;SDS011;46163;52.306;5.634;2023-07-31T09:09:59;1.60;;;1.50;;
60318;SDS011;46163;52.306;5.634;2023-07-31T09:32:32;1.70;;;1.60;;
60318;SDS011;46163;52.306;5.634;2023-07-31T09:38:29;1.60;;;1.50;;
60318;SDS011;46163;52.306;5.634;2023-07-31T09:45:19;1.45;;;1.40;;
60318;SDS011;46163;52.306;5.634;2023-07-31T09:55:37;1.35;;;1.35;;
60318;SDS011;46163;52.306;5.634;2023-07-31T10:01:58;1.45;;;1.45;;
60318;SDS011;46163;52.306;5.634;2023-07-31T10:08:16;1.50;;;1.40;;
60318;SDS011;46163;52.306;5.634;2023-07-31T10:14:30;1.50;;;1.40;;
60318;SDS011;46163;52.306;5.634;2023-07-31T10:17:10;1.65;;;1.55;;
60318;SDS011;46163;52.306;5.634;2023-07-31T10:20:24;1.50;;;1.40;;
60318;SDS011;46163;52.306;5.634;2023-07-31T10:23:12;1.35;;;1.35;;
60318;SDS011;46163;52.306;5.634;2023-07-31T10:26:04;1.60;;;1.50;;
60318;SDS011;46163;52.306;5.634;2023-07-31T10:32:48;1.48;;;1.42;;
60318;SDS011;46163;52.306;5.634;2023-07-31T10:35:22;1.52;;;1.40;;
60318;SDS011;46163;52.306;5.634;2023-07-31T10:38:09;1.30;;;1.30;;
60318;SDS011;46163;52.306;5.634;2023-07-31T10:51:44;1.95;;;1.73;;
60318;SDS011;46163;52.306;5.634;2023-07-31T10:58:06;2.10;;;1.90;;
60318;SDS011;46163;52.306;5.634;2023-07-31T11:01:09;2.10;;;1.98;;
60318;SDS011;46163;52.306;5.634;2023-07-31T11:04:57;2.22;;;2.00;;
60318;SDS011;46163;52.306;5.634;2023-07-31T11:11:54;2.75;;;2.35;;
60318;SDS011;46163;52.306;5.634;2023-07-31T11:15:10;2.60;;;2.30;;
60318;SDS011;46163;52.306;5.634;2023-07-31T11:17:59;2.63;;;2.42;;
60318;SDS011;46163;52.306;5.634;2023-07-31T11:20:51;2.72;;;2.42;;
60318;SDS011;46163;52.306;5.634;2023-07-31T11:23:20;2.78;;;2.50;;
60318;SDS011;46163;52.306;5.634;2023-07-31T11:26:01;2.90;;;2.47;;
60318;SDS011;46163;52.306;5.634;2023-07-31T11:28:41;2.80;;;2.50;;
60318;SDS011;46163;52.306;5.634;2023-07-31T11:35:06;3.78;;;3.10;;
60318;SDS011;46163;52.306;5.634;2023-07-31T11:38:53;5.38;;;2.88;;
60318;SDS011;46163;52.306;5.634;2023-07-31T11:44:43;4.75;;;3.10;;
60318;SDS011;46163;52.306;5.634;2023-07-31T11:54:13;3.30;;;2.83;;
60318;SDS011;46163;52.306;5.634;2023-07-31T12:04:05;2.92;;;2.47;;
60318;SDS011;46163;52.306;5.634;2023-07-31T12:06:38;3.42;;;2.50;;
60318;SDS011;46163;52.306;5.634;2023-07-31T12:17:03;3.08;;;2.42;;
60318;SDS011;46163;52.306;5.634;2023-07-31T12:46:51;3.45;;;2.78;;
60318;SDS011;46163;52.306;5.634;2023-07-31T12:49:24;2.92;;;2.42;;
60318;SDS011;46163;52.306;5.634;2023-07-31T12:55:39;3.17;;;2.40;;
60318;SDS011;46163;52.306;5.634;2023-07-31T13:04:52;2.25;;;2.05;;
60318;SDS011;46163;52.306;5.634;2023-07-31T13:08:16;2.45;;;2.25;;
60318;SDS011;46163;52.306;5.634;2023-07-31T13:14:48;3.38;;;2.53;;
60318;SDS011;46163;52.306;5.634;2023-07-31T13:21:05;4.53;;;2.50;;
60318;SDS011;46163;52.306;5.634;2023-07-31T13:57:20;2.90;;;2.67;;
60318;SDS011;46163;52.306;5.634;2023-07-31T14:00:25;2.75;;;2.50;;
60318;SDS011;46163;52.306;5.634;2023-07-31T14:10:45;3.05;;;2.67;;
60318;SDS011;46163;52.306;5.634;2023-07-31T14:41:25;1.60;;;1.50;;
60318;SDS011;46163;52.306;5.634;2023-07-31T14:44:39;1.80;;;1.70;;
60318;SDS011;46163;52.306;5.634;2023-07-31T14:47:48;1.90;;;1.80;;
60318;SDS011;46163;52.306;5.634;2023-07-31T14:50:28;1.55;;;1.45;;
60318;SDS011;46163;52.306;5.634;2023-07-31T14:52:56;1.60;;;1.50;;
60318;SDS011;46163;52.306;5.634;2023-07-31T14:55:24;2.10;;;1.70;;
60318;SDS011;46163;52.306;5.634;2023-07-31T15:01:19;1.30;;;1.30;;
60318;SDS011;46163;52.306;5.634;2023-07-31T15:03:53;1.50;;;1.40;;
60318;SDS011;46163;52.306;5.634;2023-07-31T15:24:48;3.10;;;2.80;;
60318;SDS011;46163;52.306;5.634;2023-07-31T15:27:57;4.72;;;2.78;;
60318;SDS011;46163;52.306;5.634;2023-07-31T15:30:25;3.47;;;3.05;;
60318;SDS011;46163;52.306;5.634;2023-07-31T15:32:51;3.10;;;2.80;;
60318;SDS011;46163;52.306;5.634;2023-07-31T15:35:18;2.70;;;2.50;;
60318;SDS011;46163;52.306;5.634;2023-07-31T15:37:43;3.42;;;2.80;;
60318;SDS011;46163;52.306;5.634;2023-07-31T15:40:09;2.85;;;2.42;;
60318;SDS011;46163;52.306;5.634;2023-07-31T15:42:35;2.85;;;2.65;;
60318;SDS011;46163;52.306;5.634;2023-07-31T15:45:04;3.92;;;2.80;;
60318;SDS011;46163;52.306;5.634;2023-07-31T15:47:31;2.88;;;2.53;;
60318;SDS011;46163;52.306;5.634;2023-07-31T15:49:57;2.72;;;2.20;;
60318;SDS011;46163;52.306;5.634;2023-07-31T15:52:23;2.70;;;2.30;;
60318;SDS011;46163;52.306;5.634;2023-07-31T15:54:48;3.42;;;2.33;;
60318;SDS011;46163;52.306;5.634;2023-07-31T15:57:14;4.28;;;2.53;;
60318;SDS011;46163;52.306;5.634;2023-07-31T15:59:39;3.65;;;2.53;;
60318;SDS011;46163;52.306;5.634;2023-07-31T16:02:05;2.92;;;2.58;;
60318;SDS011;46163;52.306;5.634;2023-07-31T16:04:33;3.90;;;2.67;;
60318;SDS011;46163;52.306;5.634;2023-07-31T16:06:59;3.13;;;2.75;;
60318;SDS011;46163;52.306;5.634;2023-07-31T16:09:24;7.68;;;2.50;;
60318;SDS011;46163;52.306;5.634;2023-07-31T16:11:50;2.80;;;2.55;;
60318;SDS011;46163;52.306;5.634;2023-07-31T16:14:16;3.85;;;2.80;;
60318;SDS011;46163;52.306;5.634;2023-07-31T16:16:41;4.18;;;2.70;;
60318;SDS011;46163;52.306;5.634;2023-07-31T16:19:07;4.60;;;2.70;;
60318;SDS011;46163;52.306;5.634;2023-07-31T16:21:33;3.70;;;2.55;;
60318;SDS011;46163;52.306;5.634;2023-07-31T16:23:58;2.92;;;2.30;;
60318;SDS011;46163;52.306;5.634;2023-07-31T16:26:24;2.83;;;2.30;;
60318;SDS011;46163;52.306;5.634;2023-07-31T16:28:50;2.35;;;2.15;;
60318;SDS011;46163;52.306;5.634;2023-07-31T16:31:15;3.92;;;2.28;;
60318;SDS011;46163;52.306;5.634;2023-07-31T16:33:41;2.63;;;2.38;;
60318;SDS011;46163;52.306;5.634;2023-07-31T16:36:06;2.47;;;2.17;;
60318;SDS011;46163;52.306;5.634;2023-07-31T16:38:32;2.65;;;2.08;;
60318;SDS011;46163;52.306;5.634;2023-07-31T16:40:58;1.92;;;1.83;;
60318;SDS011;46163;52.306;5.634;2023-07-31T16:43:23;2.40;;;1.80;;
60318;SDS011;46163;52.306;5.634;2023-07-31T16:45:49;2.15;;;1.98;;
60318;SDS011;46163;52.306;5.634;2023-07-31T16:48:15;2.10;;;1.88;;
60318;SDS011;46163;52.306;5.634;2023-07-31T16:50:40;1.80;;;1.70;;
60318;SDS011;46163;52.306;5.634;2023-07-31T16:53:06;1.70;;;1.60;;
60318;SDS011;46163;52.306;5.634;2023-07-31T16:55:32;2.25;;;2.05;;
60318;SDS011;46163;52.306;5.634;2023-07-31T16:57:59;1.85;;;1.73;;
60318;SDS011;46163;52.306;5.634;2023-07-31T17:00:24;2.05;;;1.83;;
60318;SDS011;46163;52.306;5.634;2023-07-31T17:02:50;2.83;;;1.75;;
60318;SDS011;46163;52.306;5.634;2023-07-31T17:05:16;1.52;;;1.42;;
60318;SDS011;46163;52.306;5.634;2023-07-31T17:07:41;1.60;;;1.50;;
60318;SDS011;46163;52.306;5.634;2023-07-31T17:10:07;4.50;;;1.67;;
60318;SDS011;46163;52.306;5.634;2023-07-31T17:12:33;2.28;;;1.70;;
60318;SDS011;46163;52.306;5.634;2023-07-31T17:14:58;4.90;;;1.70;;
60318;SDS011;46163;52.306;5.634;2023-07-31T17:17:24;1.20;;;1.20;;
60318;SDS011;46163;52.306;5.634;2023-07-31T17:19:50;1.55;;;1.45;;
60318;SDS011;46163;52.306;5.634;2023-07-31T17:22:16;1.33;;;1.30;;
60318;SDS011;46163;52.306;5.634;2023-07-31T17:24:41;5.28;;;1.20;;
60318;SDS011;46163;52.306;5.634;2023-07-31T17:27:07;1.45;;;1.38;;
60318;SDS011;46163;52.306;5.634;2023-07-31T17:29:33;1.10;;;1.10;;
60318;SDS011;46163;52.306;5.634;2023-07-31T17:31:59;1.10;;;1.10;;
60318;SDS011;46163;52.306;5.634;2023-07-31T17:34:24;1.77;;;1.30;;
60318;SDS011;46163;52.306;5.634;2023-07-31T17:36:50;1.13;;;1.13;;
60318;SDS011;46163;52.306;5.634;2023-07-31T17:39:18;1.10;;;1.10;;
60318;SDS011;46163;52.306;5.634;2023-07-31T17:41:43;1.83;;;1.20;;
60318;SDS011;46163;52.306;5.634;2023-07-31T17:44:09;1.02;;;1.02;;
60318;SDS011;46163;52.306;5.634;2023-07-31T17:46:34;1.30;;;1.20;;
60318;SDS011;46163;52.306;5.634;2023-07-31T17:49:00;4.95;;;1.27;;
60318;SDS011;46163;52.306;5.634;2023-07-31T17:51:27;1.50;;;1.40;;
60318;SDS011;46163;52.306;5.634;2023-07-31T17:53:52;2.17;;;1.50;;
60318;SDS011;46163;52.306;5.634;2023-07-31T17:56:18;1.40;;;1.40;;
60318;SDS011;46163;52.306;5.634;2023-07-31T17:58:45;1.55;;;1.40;;
60318;SDS011;46163;52.306;5.634;2023-07-31T18:01:10;1.52;;;1.42;;
60318;SDS011;46163;52.306;5.634;2023-07-31T18:03:36;1.63;;;1.52;;
60318;SDS011;46163;52.306;5.634;2023-07-31T18:06:01;1.70;;;1.60;;
60318;SDS011;46163;52.306;5.634;2023-07-31T18:08:27;1.58;;;1.42;;
60318;SDS011;46163;52.306;5.634;2023-07-31T18:10:53;1.30;;;1.30;;
60318;SDS011;46163;52.306;5.634;2023-07-31T18:13:18;1.50;;;1.40;;
60318;SDS011;46163;52.306;5.634;2023-07-31T18:15:44;1.48;;;1.40;;
60318;SDS011;46163;52.306;5.634;2023-07-31T18:18:10;1.20;;;1.20;;
60318;SDS011;46163;52.306;5.634;2023-07-31T18:20:36;1.63;;;1.40;;
60318;SDS011;46163;52.306;5.634;2023-07-31T18:23:02;1.30;;;1.30;;
60318;SDS011;46163;52.306;5.634;2023-07-31T18:25:28;1.75;;;1.42;;
60318;SDS011;46163;52.306;5.634;2023-07-31T18:27:54;1.58;;;1.48;;
60318;SDS011;46163;52.306;5.634;2023-07-31T18:30:19;1.65;;;1.55;;
60318;SDS011;46163;52.306;5.634;2023-07-31T18:32:45;1.67;;;1.58;;
60318;SDS011;46163;52.306;5.634;2023-07-31T18:35:10;4.10;;;1.63;;
60318;SDS011;46163;52.306;5.634;2023-07-31T18:37:38;2.53;;;1.77;;
60318;SDS011;46163;52.306;5.634;2023-07-31T18:40:04;1.90;;;1.80;;
60318;SDS011;46163;52.306;5.634;2023-07-31T18:42:30;1.75;;;1.65;;
60318;SDS011;46163;52.306;5.634;2023-07-31T18:44:56;2.30;;;2.10;;
60318;SDS011;46163;52.306;5.634;2023-07-31T18:47:22;4.43;;;2.35;;
60318;SDS011;46163;52.306;5.634;2023-07-31T18:49:47;2.58;;;2.38;;
60318;SDS011;46163;52.306;5.634;2023-07-31T18:52:13;2.97;;;2.22;;
60318;SDS011;46163;52.306;5.634;2023-07-31T18:54:38;2.95;;;2.65;;
60318;SDS011;46163;52.306;5.634;2023-07-31T18:57:04;3.70;;;3.05;;
60318;SDS011;46163;52.306;5.634;2023-07-31T18:59:30;2.83;;;2.63;;
60318;SDS011;46163;52.306;5.634;2023-07-31T19:01:55;3.13;;;2.92;;
60318;SDS011;46163;52.306;5.634;2023-07-31T19:04:21;4.10;;;3.00;;
60318;SDS011;46163;52.306;5.634;2023-07-31T19:06:47;3.28;;;2.97;;
60318;SDS011;46163;52.306;5.634;2023-07-31T19:09:13;3.60;;;3.10;;
60318;SDS011;46163;52.306;5.634;2023-07-31T19:11:39;4.30;;;3.47;;
60318;SDS011;46163;52.306;5.634;2023-07-31T19:14:04;3.90;;;3.35;;
60318;SDS011;46163;52.306;5.634;2023-07-31T19:16:30;6.90;;;3.67;;
60318;SDS011;46163;52.306;5.634;2023-07-31T19:18:57;4.07;;;3.67;;
60318;SDS011;46163;52.306;5.634;2023-07-31T19:21:22;3.83;;;3.45;;
60318;SDS011;46163;52.306;5.634;2023-07-31T19:23:48;5.35;;;3.63;;
60318;SDS011;46163;52.306;5.634;2023-07-31T19:26:14;3.95;;;3.55;;
60318;SDS011;46163;52.306;5.634;2023-07-31T19:28:41;3.85;;;3.50;;
60318;SDS011;46163;52.306;5.634;2023-07-31T19:31:06;4.00;;;3.60;;
60318;SDS011;46163;52.306;5.634;2023-07-31T19:33:34;4.28;;;3.70;;
60318;SDS011;46163;52.306;5.634;2023-07-31T19:36:03;4.05;;;3.65;;
60318;SDS011;46163;52.306;5.634;2023-07-31T19:38:29;5.63;;;3.78;;
60318;SDS011;46163;52.306;5.634;2023-07-31T19:43:27;6.97;;;3.97;;
60318;SDS011;46163;52.306;5.634;2023-07-31T19:45:54;4.38;;;3.95;;
60318;SDS011;46163;52.306;5.634;2023-07-31T19:48:19;3.97;;;3.20;;
60318;SDS011;46163;52.306;5.634;2023-07-31T19:50:46;4.67;;;4.17;;
60318;SDS011;46163;52.306;5.634;2023-07-31T19:53:12;3.88;;;3.47;;
60318;SDS011;46163;52.306;5.634;2023-07-31T19:55:38;4.13;;;3.72;;
60318;SDS011;46163;52.306;5.634;2023-07-31T19:58:03;6.10;;;3.78;;
60318;SDS011;46163;52.306;5.634;2023-07-31T20:00:30;6.07;;;3.75;;
60318;SDS011;46163;52.306;5.634;2023-07-31T20:02:55;5.35;;;3.95;;
60318;SDS011;46163;52.306;5.634;2023-07-31T20:05:21;3.63;;;3.33;;
60318;SDS011;46163;52.306;5.634;2023-07-31T20:07:46;4.45;;;3.47;;
60318;SDS011;46163;52.306;5.634;2023-07-31T20:10:13;3.70;;;3.40;;
60318;SDS011;46163;52.306;5.634;2023-07-31T20:12:42;6.93;;;3.38;;
60318;SDS011;46163;52.306;5.634;2023-07-31T20:15:17;4.30;;;3.40;;
60318;SDS011;46163;52.306;5.634;2023-07-31T20:17:46;8.00;;;3.28;;
60318;SDS011;46163;52.306;5.634;2023-07-31T20:20:12;2.85;;;2.63;;
60318;SDS011;46163;52.306;5.634;2023-07-31T20:22:38;4.13;;;2.70;;
60318;SDS011;46163;52.306;5.634;2023-07-31T20:25:03;3.13;;;2.60;;
60318;SDS011;46163;52.306;5.634;2023-07-31T20:27:32;3.03;;;2.53;;
60318;SDS011;46163;52.306;5.634;2023-07-31T20:29:58;2.60;;;2.40;;
60318;SDS011;46163;52.306;5.634;2023-07-31T20:32:23;3.17;;;2.35;;
60318;SDS011;46163;52.306;5.634;2023-07-31T20:34:49;2.45;;;2.20;;
60318;SDS011;46163;52.306;5.634;2023-07-31T20:37:14;7.95;;;2.50;;
60318;SDS011;46163;52.306;5.634;2023-07-31T20:39:40;4.00;;;2.10;;
60318;SDS011;46163;52.306;5.634;2023-07-31T20:42:05;4.40;;;2.17;;
60318;SDS011;46163;52.306;5.634;2023-07-31T20:44:31;4.30;;;1.70;;
60318;SDS011;46163;52.306;5.634;2023-07-31T20:46:57;3.65;;;2.10;;
60318;SDS011;46163;52.306;5.634;2023-07-31T20:49:23;3.47;;;2.05;;
60318;SDS011;46163;52.306;5.634;2023-07-31T20:51:48;3.55;;;2.13;;
60318;SDS011;46163;52.306;5.634;2023-07-31T20:54:19;3.58;;;2.00;;
60318;SDS011;46163;52.306;5.634;2023-07-31T20:56:44;2.25;;;1.90;;
60318;SDS011;46163;52.306;5.634;2023-07-31T20:59:10;5.60;;;2.53;;
60318;SDS011;46163;52.306;5.634;2023-07-31T21:01:35;4.57;;;2.30;;
60318;SDS011;46163;52.306;5.634;2023-07-31T21:04:01;4.30;;;2.08;;
60318;SDS011;46163;52.306;5.634;2023-07-31T21:06:28;3.88;;;2.38;;
60318;SDS011;46163;52.306;5.634;2023-07-31T21:08:53;3.58;;;2.42;;
60318;SDS011;46163;52.306;5.634;2023-07-31T21:11:19;3.38;;;2.35;;
60318;SDS011;46163;52.306;5.634;2023-07-31T21:13:44;3.97;;;2.40;;
60318;SDS011;46163;52.306;5.634;2023-07-31T21:16:12;5.85;;;2.63;;
60318;SDS011;46163;52.306;5.634;2023-07-31T21:18:38;3.03;;;2.00;;
60318;SDS011;46163;52.306;5.634;2023-07-31T21:21:03;4.15;;;2.28;;
60318;SDS011;46163;52.306;5.634;2023-07-31T21:23:29;3.85;;;2.40;;
60318;SDS011;46163;52.306;5.634;2023-07-31T21:25:54;5.00;;;2.40;;
60318;SDS011;46163;52.306;5.634;2023-07-31T21:28:20;3.38;;;2.17;;
60318;SDS011;46163;52.306;5.634;2023-07-31T21:30:45;4.82;;;2.40;;
60318;SDS011;46163;52.306;5.634;2023-07-31T21:33:11;6.50;;;2.80;;
60318;SDS011;46163;52.306;5.634;2023-07-31T21:35:36;5.80;;;2.30;;
60318;SDS011;46163;52.306;5.634;2023-07-31T21:38:02;3.95;;;2.10;;
60318;SDS011;46163;52.306;5.634;2023-07-31T21:40:27;7.43;;;2.28;;
60318;SDS011;46163;52.306;5.634;2023-07-31T21:42:53;2.75;;;2.35;;
60318;SDS011;46163;52.306;5.634;2023-07-31T21:45:19;5.97;;;2.33;;
60318;SDS011;46163;52.306;5.634;2023-07-31T21:47:44;3.97;;;2.38;;
60318;SDS011;46163;52.306;5.634;2023-07-31T21:50:10;5.65;;;2.42;;
60318;SDS011;46163;52.306;5.634;2023-07-31T21:52:36;6.05;;;2.20;;
60318;SDS011;46163;52.306;5.634;2023-07-31T21:55:02;3.60;;;1.88;;
60318;SDS011;46163;52.306;5.634;2023-07-31T21:57:28;6.78;;;2.40;;
60318;SDS011;46163;52.306;5.634;2023-07-31T21:59:54;3.92;;;2.42;;
60318;SDS011;46163;52.306;5.634;2023-07-31T22:02:19;2.25;;;2.00;;
60318;SDS011;46163;52.306;5.634;2023-07-31T22:04:45;3.42;;;2.15;;
60318;SDS011;46163;52.306;5.634;2023-07-31T22:07:10;5.28;;;2.33;;
60318;SDS011;46163;52.306;5.634;2023-07-31T22:09:37;5.57;;;2.58;;
60318;SDS011;46163;52.306;5.634;2023-07-31T22:12:02;5.22;;;2.45;;
60318;SDS011;46163;52.306;5.634;2023-07-31T22:14:28;3.80;;;2.15;;
60318;SDS011;46163;52.306;5.634;2023-07-31T22:16:54;4.90;;;2.25;;
60318;SDS011;46163;52.306;5.634;2023-07-31T22:19:19;5.07;;;2.55;;
60318;SDS011;46163;52.306;5.634;2023-07-31T22:21:45;7.97;;;2.42;;
60318;SDS011;46163;52.306;5.634;2023-07-31T22:24:11;3.20;;;2.15;;
60318;SDS011;46163;52.306;5.634;2023-07-31T22:26:37;6.63;;;2.60;;
60318;SDS011;46163;52.306;5.634;2023-07-31T22:29:02;6.05;;;2.58;;
60318;SDS011;46163;52.306;5.634;2023-07-31T22:31:28;10.45;;;2.47;;
60318;SDS011;46163;52.306;5.634;2023-07-31T22:33:53;2.40;;;2.10;;
60318;SDS011;46163;52.306;5.634;2023-07-31T22:36:21;4.60;;;2.40;;
60318;SDS011;46163;52.306;5.634;2023-07-31T22:38:46;2.55;;;2.00;;
60318;SDS011;46163;52.306;5.634;2023-07-31T22:41:15;2.67;;;2.13;;
60318;SDS011;46163;52.306;5.634;2023-07-31T22:43:42;3.10;;;2.03;;